createdAt,value
2023-05-20T00:00:12.290Z,97030.19
2023-05-20T00:02:42.435Z,97031.91
2023-05-20T00:05:11.494Z,97036.34
2023-05-20T00:07:39.846Z,97030.09
2023-05-20T00:10:09.361Z,97030.78
2023-05-20T00:12:39.005Z,97024.81
2023-05-20T00:15:09.056Z,97025.41
2023-05-20T00:17:37.706Z,97016.53
2023-05-20T00:20:09.258Z,97017.81
2023-05-20T00:22:37.862Z,97023.63
2023-05-20T00:25:07.104Z,97012.78
2023-05-20T00:27:35.400Z,97014.19
2023-05-20T00:30:04.345Z,97004.97
2023-05-20T00:32:33.015Z,97008.84
2023-05-20T00:35:05.237Z,97014.66
2023-05-20T00:37:35.035Z,97014.66
2023-05-20T00:40:04.051Z,97015.13
2023-05-20T00:42:32.785Z,97015.41
2023-05-20T00:45:02.445Z,97007.16
2023-05-20T00:47:33.915Z,97011.31
2023-05-20T00:50:03.941Z,97002.88
2023-05-20T00:52:35.476Z,96997.19
2023-05-20T00:55:04.428Z,96996.97
2023-05-20T00:57:33.143Z,96998.91
2023-05-20T01:00:02.192Z,96996.63
2023-05-20T01:02:31.498Z,96997.41
2023-05-20T01:05:00.624Z,97004.28
2023-05-20T01:07:29.295Z,96996.16
2023-05-20T01:09:59.617Z,96995.34
2023-05-20T01:12:32.772Z,96992.59
2023-05-20T01:15:06.862Z,96992.16
2023-05-20T01:17:39.589Z,96985.41
2023-05-20T01:20:10.900Z,96985.75
2023-05-20T01:22:47.849Z,96984.59
2023-05-20T01:25:16.618Z,96989.16
2023-05-20T01:27:48.961Z,96976.69
2023-05-20T01:30:18.183Z,96979.78
2023-05-20T01:32:53.674Z,96978.53
2023-05-20T01:35:24.168Z,96969.69
2023-05-20T01:37:54.739Z,96980.88
2023-05-20T01:40:25.618Z,96972.88
2023-05-20T01:42:56.191Z,96978.47
2023-05-20T01:45:26.806Z,96973.81
2023-05-20T01:47:55.606Z,96971.91
2023-05-20T01:50:24.406Z,96971.91
2023-05-20T01:52:54.060Z,96965.63
2023-05-20T01:55:22.709Z,96969.88
2023-05-20T01:57:51.307Z,96965.19
2023-05-20T02:00:20.325Z,96969.19
2023-05-20T02:02:49.014Z,96963.69
2023-05-20T02:05:18.262Z,96964.84
2023-05-20T02:07:46.903Z,96960.16
2023-05-20T02:10:17.048Z,96968.94
2023-05-20T02:12:47.933Z,96964.22
2023-05-20T02:15:16.980Z,96963.31
2023-05-20T02:17:45.697Z,96970.59
2023-05-20T02:20:16.378Z,96965.66
2023-05-20T02:22:44.678Z,96960.50
2023-05-20T02:25:13.528Z,96967.59
2023-05-20T02:27:43.165Z,96968.41
2023-05-20T02:30:12.226Z,96963.59
2023-05-20T02:32:40.959Z,96954.66
2023-05-20T02:35:10.078Z,96945.59
2023-05-20T02:37:39.529Z,96954.97
2023-05-20T02:40:10.388Z,96947.97
2023-05-20T02:42:42.424Z,96950.69
2023-05-20T02:45:11.767Z,96949.41
2023-05-20T02:47:41.092Z,96945.09
2023-05-20T02:50:10.122Z,96955.69
2023-05-20T02:52:40.024Z,96948.63
2023-05-20T02:55:10.061Z,96953.78
2023-05-20T02:57:39.289Z,96954.44
2023-05-20T03:00:12.087Z,96959.13
2023-05-20T03:02:40.932Z,96964.59
2023-05-20T03:05:10.920Z,96956.84
2023-05-20T03:07:39.960Z,96950.91
2023-05-20T03:10:10.735Z,96952.94
2023-05-20T03:12:41.365Z,96952.78
2023-05-20T03:15:13.353Z,96958.91
2023-05-20T03:17:42.088Z,96956.19
2023-05-20T03:20:12.868Z,96956.50
2023-05-20T03:22:43.092Z,96958.91
2023-05-20T03:25:12.537Z,96959.72
2023-05-20T03:27:43.482Z,96950.97
2023-05-20T03:30:14.480Z,96958.25
2023-05-20T03:32:44.357Z,96948.28
2023-05-20T03:35:13.452Z,96954.69
2023-05-20T03:37:42.485Z,96958.06
2023-05-20T03:40:12.369Z,96955.66
2023-05-20T03:42:42.481Z,96966.28
2023-05-20T03:45:13.345Z,96966.59
2023-05-20T03:47:49.747Z,96962.19
2023-05-20T03:50:19.593Z,96970.69
2023-05-20T03:52:48.665Z,96965.19
2023-05-20T03:55:20.554Z,96961.66
2023-05-20T03:57:49.219Z,96961.91
2023-05-20T04:00:19.581Z,96955.75
2023-05-20T04:02:49.394Z,96973.13
2023-05-20T04:05:20.530Z,96964.56
2023-05-20T04:07:50.077Z,96978.75
2023-05-20T04:10:21.799Z,96970.13
2023-05-20T04:12:52.464Z,96968.31
2023-05-20T04:15:25.327Z,96966.94
2023-05-20T04:17:57.291Z,96968.00
2023-05-20T04:20:26.947Z,96973.06
2023-05-20T04:22:58.645Z,96970.94
2023-05-20T04:25:27.498Z,96971.16
2023-05-20T04:27:57.714Z,96966.44
2023-05-20T04:30:27.890Z,96969.66
2023-05-20T04:32:56.626Z,96975.81
2023-05-20T04:35:26.157Z,96960.75
2023-05-20T04:37:57.378Z,96966.22
2023-05-20T04:40:25.949Z,96966.47
2023-05-20T04:42:55.925Z,96961.31
2023-05-20T04:45:25.175Z,96960.75
2023-05-20T04:47:54.900Z,96957.53
2023-05-20T04:50:23.646Z,96961.31
2023-05-20T04:52:52.420Z,96955.59
2023-05-20T04:55:21.610Z,96965.09
2023-05-20T04:57:50.615Z,96967.41
2023-05-20T05:00:19.590Z,96968.88
2023-05-20T05:02:49.021Z,96972.06
2023-05-20T05:05:19.278Z,96960.94
2023-05-20T05:07:47.989Z,96965.19
2023-05-20T05:10:16.797Z,96954.09
2023-05-20T05:12:45.988Z,96952.72
2023-05-20T05:15:14.687Z,96956.19
2023-05-20T05:17:44.632Z,96956.75
2023-05-20T05:20:14.091Z,96958.44
2023-05-20T05:22:44.090Z,96950.09
2023-05-20T05:25:13.889Z,96954.88
2023-05-20T05:27:44.660Z,96957.50
2023-05-20T05:30:13.511Z,96946.47
2023-05-20T05:32:42.563Z,96952.75
2023-05-20T05:35:11.890Z,96940.91
2023-05-20T05:37:40.512Z,96950.38
2023-05-20T05:40:12.127Z,96937.81
2023-05-20T05:42:41.140Z,96945.44
2023-05-20T05:45:11.923Z,96937.13
2023-05-20T05:47:40.964Z,96933.69
2023-05-20T05:50:11.069Z,96936.19
2023-05-20T05:52:39.764Z,96923.66
2023-05-20T05:55:12.881Z,96917.06
2023-05-20T05:57:41.580Z,96913.22
2023-05-20T06:00:14.383Z,96919.97
2023-05-20T06:02:49.396Z,96921.13
2023-05-20T06:05:33.715Z,96917.63
2023-05-20T06:08:02.630Z,96916.66
2023-05-20T06:10:33.876Z,96915.06
2023-05-20T06:13:02.482Z,96924.69
2023-05-20T06:15:31.108Z,96925.13
2023-05-20T06:17:59.819Z,96927.53
2023-05-20T06:20:29.055Z,96917.88
2023-05-20T06:22:58.124Z,96922.44
2023-05-20T06:25:33.613Z,96921.59
2023-05-20T06:28:03.439Z,96927.31
2023-05-20T06:30:33.058Z,96927.94
2023-05-20T06:33:01.888Z,96924.03
2023-05-20T06:35:30.415Z,96921.66
2023-05-20T06:38:01.208Z,96918.31
2023-05-20T06:40:31.006Z,96923.69
2023-05-20T06:43:01.714Z,96920.84
2023-05-20T06:45:51.026Z,96905.66
2023-05-20T06:48:28.684Z,96909.81
2023-05-20T06:50:58.020Z,96917.59
2023-05-20T06:53:26.771Z,96916.34
2023-05-20T06:55:56.827Z,96921.69
2023-05-20T06:58:26.848Z,96911.72
2023-05-20T07:00:58.545Z,96911.41
2023-05-20T07:03:28.035Z,96910.91
2023-05-20T07:05:58.746Z,96916.91
2023-05-20T07:08:27.436Z,96908.09
2023-05-20T07:10:57.452Z,96905.88
2023-05-20T07:13:27.612Z,96911.13
2023-05-20T07:15:56.505Z,96911.09
2023-05-20T07:18:25.489Z,96900.78
2023-05-20T07:20:56.870Z,96903.19
2023-05-20T07:23:44.357Z,96891.69
2023-05-20T07:26:13.064Z,96900.00
2023-05-20T07:28:44.100Z,96892.47
2023-05-20T07:31:12.906Z,96881.34
2023-05-20T07:33:44.792Z,96893.69
2023-05-20T07:36:14.296Z,96886.84
2023-05-20T07:38:53.173Z,96891.28
2023-05-20T07:41:31.113Z,96898.06
2023-05-20T07:44:03.759Z,96888.03
2023-05-20T07:46:33.027Z,96890.00
2023-05-20T07:49:01.348Z,96886.31
2023-05-20T07:51:29.903Z,96881.63
2023-05-20T07:53:59.081Z,96889.19
2023-05-20T07:56:29.432Z,96880.56
2023-05-20T07:59:03.310Z,96882.28
2023-05-20T08:01:36.616Z,96882.38
2023-05-20T08:04:06.077Z,96889.63
2023-05-20T08:06:35.553Z,96898.34
2023-05-20T08:09:06.878Z,96895.06
2023-05-20T08:11:38.293Z,96889.53
2023-05-20T08:14:08.724Z,96890.25
2023-05-20T08:16:43.289Z,96886.34
2023-05-20T08:19:12.146Z,96877.69
2023-05-20T08:21:40.734Z,96883.75
2023-05-20T08:24:09.322Z,96878.63
2023-05-20T08:26:38.394Z,96885.56
2023-05-20T08:29:09.654Z,96888.81
2023-05-20T08:31:38.450Z,96877.06
2023-05-20T08:34:08.113Z,96879.19
2023-05-20T08:36:36.953Z,96878.94
2023-05-20T08:39:06.302Z,96874.53
2023-05-20T08:41:35.752Z,96877.75
2023-05-20T08:44:05.203Z,96878.69
2023-05-20T08:46:38.086Z,96879.03
2023-05-20T08:49:08.444Z,96877.81
2023-05-20T08:51:39.088Z,96880.47
2023-05-20T08:54:11.980Z,96867.19
2023-05-20T08:56:42.015Z,96870.69
2023-05-20T08:59:11.216Z,96876.25
2023-05-20T09:01:44.254Z,96872.13
2023-05-20T09:04:13.106Z,96870.63
2023-05-20T09:06:45.590Z,96870.41
2023-05-20T09:09:14.717Z,96866.00
2023-05-20T09:11:44.227Z,96865.41
2023-05-20T09:14:12.852Z,96862.88
2023-05-20T09:16:42.962Z,96869.66
2023-05-20T09:19:11.943Z,96871.75
2023-05-20T09:21:43.348Z,96859.09
2023-05-20T09:24:11.981Z,96868.25
2023-05-20T09:26:40.517Z,96866.38
2023-05-20T09:29:09.688Z,96864.69
2023-05-20T09:31:39.341Z,96861.06
2023-05-20T09:34:09.697Z,96859.13
2023-05-20T09:36:40.458Z,96860.81
2023-05-20T09:39:15.259Z,96852.63
2023-05-20T09:41:54.999Z,96859.81
2023-05-20T09:44:24.081Z,96859.41
2023-05-20T09:46:54.450Z,96860.41
2023-05-20T09:49:24.859Z,96860.75
2023-05-20T09:51:57.238Z,96862.59
2023-05-20T09:54:26.816Z,96852.66
2023-05-20T09:56:56.493Z,96851.22
2023-05-20T09:59:26.932Z,96837.31
2023-05-20T10:01:55.625Z,96845.66
2023-05-20T10:04:28.392Z,96841.09
2023-05-20T10:07:49.722Z,96835.03
2023-05-20T10:10:34.342Z,96834.72
2023-05-20T10:13:13.369Z,96830.50
2023-05-20T10:16:01.309Z,96825.56
2023-05-20T10:18:46.815Z,96822.13
2023-05-20T10:21:24.564Z,96819.09
2023-05-20T10:23:53.462Z,96819.31
2023-05-20T10:26:21.980Z,96817.19
2023-05-20T10:28:50.815Z,96813.34
2023-05-20T10:31:22.491Z,96812.13
2023-05-20T10:33:53.531Z,96816.91
2023-05-20T10:36:31.614Z,96812.41
2023-05-20T10:39:01.736Z,96812.97
2023-05-20T10:41:31.746Z,96813.16
2023-05-20T10:44:04.790Z,96801.50
2023-05-20T10:46:44.204Z,96806.16
2023-05-20T10:49:26.947Z,96800.69
2023-05-20T10:51:57.511Z,96796.97
2023-05-20T10:54:26.300Z,96795.75
2023-05-20T10:56:55.240Z,96799.31
2023-05-20T10:59:24.656Z,96795.16
2023-05-20T11:01:53.368Z,96788.22
2023-05-20T11:04:22.360Z,96792.50
2023-05-20T11:06:55.358Z,96785.50
2023-05-20T11:09:25.171Z,96778.06
2023-05-20T11:11:55.210Z,96776.53
2023-05-20T11:14:23.976Z,96771.53
2023-05-20T11:16:58.330Z,96766.69
2023-05-20T11:19:27.692Z,96770.22
2023-05-20T11:21:56.559Z,96767.97
2023-05-20T11:24:28.248Z,96777.59
2023-05-20T11:26:58.456Z,96774.75
2023-05-20T11:29:29.252Z,96777.06
2023-05-20T11:31:58.263Z,96764.88
2023-05-20T11:34:28.264Z,96767.59
2023-05-20T11:36:58.879Z,96766.31
2023-05-20T11:39:31.848Z,96767.19
2023-05-20T11:42:00.623Z,96767.75
2023-05-20T11:44:29.330Z,96763.00
2023-05-20T11:47:03.321Z,96767.72
2023-05-20T11:49:32.066Z,96768.31
2023-05-20T11:52:00.645Z,96759.09
2023-05-20T11:54:30.333Z,96759.09
2023-05-20T11:56:59.818Z,96753.91
2023-05-20T11:59:29.364Z,96748.78
2023-05-20T12:01:58.015Z,96749.03
2023-05-20T12:04:26.689Z,96746.06
2023-05-20T12:06:56.178Z,96749.09
2023-05-20T12:09:24.839Z,96749.50
2023-05-20T12:11:56.683Z,96746.50
2023-05-20T12:14:25.283Z,96758.09
2023-05-20T12:16:54.850Z,96747.00
2023-05-20T12:19:23.518Z,96745.56
2023-05-20T12:21:52.840Z,96746.00
2023-05-20T12:24:21.404Z,96749.69
2023-05-20T12:26:49.746Z,96753.34
2023-05-20T12:29:21.740Z,96756.41
2023-05-20T12:31:50.116Z,96751.91
2023-05-20T12:34:18.429Z,96743.50
2023-05-20T12:36:47.211Z,96748.66
2023-05-20T12:39:17.814Z,96744.84
2023-05-20T12:41:46.504Z,96739.97
2023-05-20T12:44:16.847Z,96739.03
2023-05-20T12:46:46.750Z,96753.47
2023-05-20T12:49:15.661Z,96745.75
2023-05-20T12:51:43.930Z,96734.03
2023-05-20T12:54:12.550Z,96734.38
2023-05-20T12:56:41.237Z,96731.56
2023-05-20T12:59:09.932Z,96736.53
2023-05-20T13:01:38.749Z,96733.03
2023-05-20T13:04:09.054Z,96730.91
2023-05-20T13:06:38.154Z,96738.47
2023-05-20T13:09:06.863Z,96725.41
2023-05-20T13:11:35.445Z,96733.75
2023-05-20T13:14:03.742Z,96726.72
2023-05-20T13:16:32.487Z,96738.53
2023-05-20T13:19:01.723Z,96726.09
2023-05-20T13:21:33.156Z,96737.25
2023-05-20T13:24:02.135Z,96732.13
2023-05-20T13:26:30.808Z,96733.50
2023-05-20T13:28:59.379Z,96731.34
2023-05-20T13:31:28.020Z,96723.53
2023-05-20T13:33:59.192Z,96729.59
2023-05-20T13:36:28.038Z,96727.31
2023-05-20T13:38:57.732Z,96723.88
2023-05-20T13:41:26.574Z,96717.47
2023-05-20T13:43:55.025Z,96707.00
2023-05-20T13:46:24.599Z,96705.78
2023-05-20T13:48:53.233Z,96702.06
2023-05-20T13:51:21.608Z,96703.09
2023-05-20T13:53:49.936Z,96690.34
2023-05-20T13:56:19.879Z,96694.06
2023-05-20T13:58:48.607Z,96677.13
2023-05-20T14:01:17.540Z,96689.94
2023-05-20T14:03:46.650Z,96683.94
2023-05-20T14:06:18.750Z,96680.78
2023-05-20T14:08:47.961Z,96680.22
2023-05-20T14:11:16.642Z,96684.53
2023-05-20T14:13:46.337Z,96682.47
2023-05-20T14:16:15.034Z,96669.44
2023-05-20T14:18:43.774Z,96678.28
2023-05-20T14:21:13.213Z,96672.81
2023-05-20T14:23:44.526Z,96666.78
2023-05-20T14:26:13.200Z,96667.53
2023-05-20T14:28:42.126Z,96658.78
2023-05-20T14:31:12.246Z,96654.53
2023-05-20T14:33:41.087Z,96660.16
2023-05-20T14:36:10.111Z,96664.31
2023-05-20T14:38:39.320Z,96656.53
2023-05-20T14:41:07.996Z,96654.69
2023-05-20T14:43:36.735Z,96661.13
2023-05-20T14:46:05.878Z,96653.84
2023-05-20T14:48:35.505Z,96637.50
2023-05-20T14:51:04.170Z,96637.97
2023-05-20T14:53:32.867Z,96642.22
2023-05-20T14:56:01.310Z,96641.59
2023-05-20T14:58:29.988Z,96636.63
2023-05-20T15:00:58.894Z,96634.44
2023-05-20T15:03:28.116Z,96636.31
2023-05-20T15:05:57.936Z,96628.00
2023-05-20T15:08:26.496Z,96631.44
2023-05-20T15:10:55.266Z,96632.19
2023-05-20T15:13:24.153Z,96626.59
2023-05-20T15:15:52.854Z,96628.84
2023-05-20T15:18:22.686Z,96633.69
2023-05-20T15:20:51.356Z,96620.78
2023-05-20T15:23:21.502Z,96632.47
2023-05-20T15:25:50.403Z,96623.66
2023-05-20T15:28:19.859Z,96629.50
2023-05-20T15:30:52.454Z,96630.28
2023-05-20T15:33:21.541Z,96617.13
2023-05-20T15:35:50.173Z,96623.16
2023-05-20T15:38:20.101Z,96634.47
2023-05-20T15:40:50.373Z,96626.31
2023-05-20T15:43:19.551Z,96630.16
2023-05-20T15:45:48.608Z,96627.97
2023-05-20T15:48:17.378Z,96626.22
2023-05-20T15:50:46.197Z,96633.00
2023-05-20T15:53:16.833Z,96638.06
2023-05-20T15:55:46.582Z,96643.81
2023-05-20T15:58:14.878Z,96642.13
2023-05-20T16:00:43.876Z,96639.00
2023-05-20T16:03:12.692Z,96635.34
2023-05-20T16:05:41.873Z,96635.47
2023-05-20T16:08:10.751Z,96635.31
2023-05-20T16:10:39.019Z,96638.00
2023-05-20T16:13:08.756Z,96637.47
2023-05-20T16:15:38.568Z,96636.25
2023-05-20T16:18:07.404Z,96636.81
2023-05-20T16:20:36.304Z,96635.22
2023-05-20T16:23:05.623Z,96639.94
2023-05-20T16:25:34.024Z,96642.13
2023-05-20T16:28:02.828Z,96640.75
2023-05-20T16:30:32.999Z,96641.09
2023-05-20T16:33:01.906Z,96631.94
2023-05-20T16:35:30.670Z,96642.47
2023-05-20T16:37:59.346Z,96643.44
2023-05-20T16:40:28.051Z,96642.63
2023-05-20T16:42:56.938Z,96643.19
2023-05-20T16:45:25.676Z,96639.41
2023-05-20T16:47:56.521Z,96645.22
2023-05-20T16:50:25.318Z,96644.25
2023-05-20T16:52:54.383Z,96645.09
2023-05-20T16:55:23.129Z,96650.13
2023-05-20T16:57:51.573Z,96646.28
2023-05-20T17:00:21.039Z,96639.72
2023-05-20T17:02:49.814Z,96641.72
2023-05-20T17:05:19.486Z,96643.47
2023-05-20T17:07:49.782Z,96641.31
2023-05-20T17:10:18.516Z,96638.69
2023-05-20T17:12:47.120Z,96639.25
2023-05-20T17:15:16.020Z,96643.22
2023-05-20T17:17:44.737Z,96641.06
2023-05-20T17:20:14.136Z,96643.56
2023-05-20T17:22:44.170Z,96644.03
2023-05-20T17:25:12.821Z,96643.28
2023-05-20T17:27:41.472Z,96647.28
2023-05-20T17:30:10.635Z,96645.69
2023-05-20T17:32:40.589Z,96650.88
2023-05-20T17:35:10.114Z,96650.94
2023-05-20T17:37:38.880Z,96643.13
2023-05-20T17:40:10.299Z,96647.94
2023-05-20T17:42:38.952Z,96654.81
2023-05-20T17:45:08.829Z,96640.06
2023-05-20T17:47:37.439Z,96654.00
2023-05-20T17:50:06.959Z,96644.94
2023-05-20T17:52:35.232Z,96654.91
2023-05-20T17:55:04.659Z,96651.75
2023-05-20T17:57:34.668Z,96654.94
2023-05-20T18:00:05.286Z,96653.75
2023-05-20T18:02:33.628Z,96654.53
2023-05-20T18:05:01.995Z,96647.03
2023-05-20T18:07:30.599Z,96656.22
2023-05-20T18:09:59.257Z,96655.84
2023-05-20T18:12:28.740Z,96653.09
2023-05-20T18:14:58.602Z,96651.88
2023-05-20T18:17:27.337Z,96655.50
2023-05-20T18:19:55.659Z,96657.91
2023-05-20T18:22:24.164Z,96654.72
2023-05-20T18:24:53.147Z,96655.50
2023-05-20T18:27:21.749Z,96665.03
2023-05-20T18:29:51.021Z,96661.47
2023-05-20T18:32:26.596Z,96661.88
2023-05-20T18:34:55.221Z,96665.03
2023-05-20T18:37:23.892Z,96668.22
2023-05-20T18:39:52.573Z,96670.59
2023-05-20T18:42:22.036Z,96672.16
2023-05-20T18:44:50.666Z,96665.78
2023-05-20T18:47:20.622Z,96672.50
2023-05-20T18:49:49.509Z,96673.69
2023-05-20T18:52:20.798Z,96666.56
2023-05-20T18:54:49.484Z,96671.66
2023-05-20T18:57:18.169Z,96671.66
2023-05-20T18:59:48.075Z,96668.50
2023-05-20T19:02:17.385Z,96669.22
2023-05-20T19:04:47.496Z,96668.84
2023-05-20T19:07:16.440Z,96670.41
2023-05-20T19:09:45.034Z,96675.53
2023-05-20T19:12:13.681Z,96675.09
2023-05-20T19:14:42.700Z,96667.56
2023-05-20T19:17:11.538Z,96669.94
2023-05-20T19:19:40.474Z,96671.84
2023-05-20T19:22:10.918Z,96671.00
2023-05-20T19:24:40.149Z,96669.38
2023-05-20T19:27:08.737Z,96673.34
2023-05-20T19:29:37.293Z,96669.38
2023-05-20T19:32:06.375Z,96672.47
2023-05-20T19:34:35.922Z,96672.91
2023-05-20T19:37:04.595Z,96676.06
2023-05-20T19:39:34.598Z,96673.59
2023-05-20T19:42:03.205Z,96680.34
2023-05-20T19:44:31.878Z,96677.09
2023-05-20T19:47:01.153Z,96673.53
2023-05-20T19:49:29.825Z,96677.91
2023-05-20T19:51:58.491Z,96683.78
2023-05-20T19:54:28.476Z,96681.38
2023-05-20T19:56:59.154Z,96693.28
2023-05-20T19:59:27.925Z,96697.97
2023-05-20T20:01:56.774Z,96692.84
2023-05-20T20:04:25.507Z,96700.34
2023-05-20T20:06:54.113Z,96695.19
2023-05-20T20:09:22.775Z,96697.56
2023-05-20T20:11:51.443Z,96701.09
2023-05-20T20:14:21.698Z,96699.47
2023-05-20T20:16:50.329Z,96695.47
2023-05-20T20:19:23.162Z,96701.84
2023-05-20T20:21:53.543Z,96701.00
2023-05-20T20:24:22.314Z,96691.91
2023-05-20T20:26:54.269Z,96688.72
2023-05-20T20:29:25.061Z,96693.06
2023-05-20T20:31:56.079Z,96700.13
2023-05-20T20:34:24.922Z,96693.06
2023-05-20T20:36:54.711Z,96702.94
2023-05-20T20:39:25.202Z,96706.38
2023-05-20T20:41:54.589Z,96694.22
2023-05-20T20:44:25.584Z,96692.66
2023-05-20T20:46:55.140Z,96702.44
2023-05-20T20:49:26.361Z,96698.47
2023-05-20T20:51:56.003Z,96696.09
2023-05-20T20:54:24.582Z,96694.91
2023-05-20T20:56:53.059Z,96699.22
2023-05-20T20:59:26.957Z,96687.69
2023-05-20T21:01:55.330Z,96697.16
2023-05-20T21:04:25.087Z,96697.16
2023-05-20T21:06:53.674Z,96686.56
2023-05-20T21:09:22.611Z,96691.63
2023-05-20T21:11:51.238Z,96686.13
2023-05-20T21:14:19.582Z,96684.53
2023-05-20T21:16:49.525Z,96687.59
2023-05-20T21:19:18.428Z,96688.72
2023-05-20T21:21:46.748Z,96686.84
2023-05-20T21:24:15.414Z,96679.38
2023-05-20T21:26:43.977Z,96680.53
2023-05-20T21:29:13.016Z,96680.13
2023-05-20T21:31:41.586Z,96682.06
2023-05-20T21:34:11.148Z,96679.25
2023-05-20T21:36:39.835Z,96685.22
2023-05-20T21:39:08.730Z,96691.47
2023-05-20T21:41:37.447Z,96688.69
2023-05-20T21:44:06.585Z,96684.03
2023-05-20T21:46:35.248Z,96682.00
2023-05-20T21:49:03.865Z,96680.44
2023-05-20T21:51:33.432Z,96685.97
2023-05-20T21:54:01.988Z,96688.69
2023-05-20T21:56:30.587Z,96683.16
2023-05-20T21:58:58.865Z,96685.13
2023-05-20T22:01:27.732Z,96688.19
2023-05-20T22:03:56.639Z,96676.34
2023-05-20T22:06:25.845Z,96678.34
2023-05-20T22:08:55.873Z,96679.47
2023-05-20T22:11:24.442Z,96677.00
2023-05-20T22:13:53.714Z,96670.72
2023-05-20T22:16:22.110Z,96667.13
2023-05-20T22:18:53.900Z,96671.41
2023-05-20T22:21:22.797Z,96669.81
2023-05-20T22:23:51.491Z,96666.69
2023-05-20T22:26:22.151Z,96670.56
2023-05-20T22:28:51.178Z,96672.16
2023-05-20T22:31:19.494Z,96667.41
2023-05-20T22:33:48.092Z,96668.59
2023-05-20T22:36:16.683Z,96663.44
2023-05-20T22:38:45.452Z,96664.94
2023-05-20T22:41:14.116Z,96658.94
2023-05-20T22:43:44.098Z,96663.28
2023-05-20T22:46:13.303Z,96661.78
2023-05-20T22:48:42.451Z,96653.53
2023-05-20T22:51:11.228Z,96648.34
2023-05-20T22:53:39.595Z,96651.81
2023-05-20T22:56:08.998Z,96652.56
2023-05-20T22:58:39.733Z,96647.03
2023-05-20T23:01:10.486Z,96651.75
2023-05-20T23:03:39.961Z,96639.56
2023-05-20T23:06:08.704Z,96640.34
2023-05-20T23:08:37.253Z,96634.06
2023-05-20T23:11:06.878Z,96640.41
2023-05-20T23:13:35.531Z,96633.59
2023-05-20T23:16:06.321Z,96641.44
2023-05-20T23:18:36.211Z,96633.50
2023-05-20T23:21:05.942Z,96629.91
2023-05-20T23:23:34.991Z,96633.03
2023-05-20T23:26:05.243Z,96628.69
2023-05-20T23:28:33.508Z,96625.44
2023-05-20T23:31:02.093Z,96628.53
2023-05-20T23:33:31.333Z,96626.66
2023-05-20T23:36:01.153Z,96621.53
2023-05-20T23:38:30.593Z,96621.56
2023-05-20T23:40:59.157Z,96623.03
2023-05-20T23:43:27.884Z,96621.41
2023-05-20T23:45:56.795Z,96617.84
2023-05-20T23:48:26.447Z,96610.81
2023-05-20T23:50:54.847Z,96604.41
2023-05-20T23:53:25.630Z,96611.47
2023-05-20T23:55:55.172Z,96607.53
2023-05-20T23:58:23.761Z,96608.31
